aviador You're here:

YPCC Decoded Metar

COCOS ISL INTL A in AUSTRALIA
Report Time2017-08-20 13:30:00
UTC Time2017-08-20 13:40:59
Flight Rules mvfr MVFR
Wind130° at 19 kt
W.Decomp.*RWY 15: 18.2 kt HW 5.6 kt LCW
W.Rank130° ranks 3
Current wind is above 130° avg. (13.3)
Visibility5000 m
Phenomena:N/A
Clouds:Scattered 020 Hf
CeilingNone
Temp25°C (ISA +10)
Dew Point25°C (100% RH)
AAT24.6°C
QNH1013 hPa
Density Alt1,585 ft
Elevation10 ft
Report Wrong Elevation
Raw Report
SPECI YPCC 201330Z AUTO 13019KT 5000 // SCT020 25/25 Q1013=

Extra information for YPCC:More info

Metar Taf Metar & Taf Last 4 Metars F.Rules Stats Wind Profile Meteogram Temp Stats Airport Information Weather charts Add Link Nearby VenuesMetar ALERT Operation Metar Decoded Social comments